SARP/PSS METAR and TAF weather

Enter ICAO airport designator
Station Type Date Time Source
SARP METAR 2019/06/19 06:00 UTC NOAA

SARP 190600Z 20006KT 9999 -DZ BKN005 OVC012 15/15 Q1019


Station Type Date Time Source
SARP Decoded METAR 2019/06/19 06:00 UTC NOAA

Posadas Aero., Argentina (SARP) 27-22S 055-58W 133M
Jun 19, 2019 - 02:00 AM EDT / 2019.06.19 0600 UTC
Wind: from the SSW (200 degrees) at 7 MPH (6 KT):0
Visibility: greater than 7 mile(s):0
Sky conditions: overcast
Weather: light drizzle
Temperature: 59 F (15 C)
Dew Point: 59 F (15 C)
Relative Humidity: 100%
Pressure (altimeter): 30.09 in. Hg (1019 hPa)
ob: SARP 190600Z 20006KT 9999 -DZ BKN005 OVC012 15/15 Q1019
cycle: 6

Station Type Date Time Source
SARP TAF 2019/06/19 06:09 UTC NOAA

TAF SARP 190500Z 1906/2006 18010KT 8000 -RADZ BKN005 OVC010 TX20/1918Z TN14/1910Z PROB40 1908/1911 0500 FG OVC005
BECMG 1913/1915 CAVOK

Example: see airport list